createdAt,value
2018-09-29T00:02:15.430Z,19.07
2018-09-29T00:04:45.445Z,13.30
2018-09-29T00:24:37.023Z,13.50
2018-09-29T00:27:06.844Z,16.10
2018-09-29T00:29:36.658Z,16.93
2018-09-29T00:49:28.499Z,14.20
2018-09-29T00:51:58.204Z,17.83
2018-09-29T00:54:27.813Z,20.90
2018-09-29T00:56:57.869Z,16.27
2018-09-29T00:59:27.611Z,20.63
2018-09-29T01:01:57.272Z,19.85
2018-09-29T01:04:27.335Z,19.33
2018-09-29T01:06:57.080Z,19.80
2018-09-29T01:09:26.767Z,23.07
2018-09-29T01:11:56.732Z,22.43
2018-09-29T01:14:26.491Z,21.90
2018-09-29T01:16:56.460Z,24.67
2018-09-29T01:19:26.388Z,23.07
2018-09-29T01:21:56.115Z,22.20
2018-09-29T01:24:25.814Z,22.50
2018-09-29T01:26:55.835Z,19.67
2018-09-29T01:29:25.486Z,21.33
2018-09-29T01:31:55.412Z,22.13
2018-09-29T01:51:47.042Z,17.70
2018-09-29T01:54:16.793Z,16.73
2018-09-29T01:56:46.394Z,18.07
2018-09-29T01:59:15.989Z,21.40
2018-09-29T02:01:45.715Z,20.60
2018-09-29T02:04:15.505Z,24.72
2018-09-29T02:06:45.569Z,20.93
2018-09-29T02:09:15.219Z,23.30
2018-09-29T02:11:45.164Z,24.90
2018-09-29T02:14:15.558Z,21.73
2018-09-29T02:16:45.286Z,26.60
2018-09-29T02:19:15.061Z,29.60
2018-09-29T02:21:44.949Z,30.73
2018-09-29T02:24:14.839Z,32.37
2018-09-29T02:26:44.752Z,24.47
2018-09-29T02:29:14.564Z,22.37
2018-09-29T02:31:44.382Z,26.37
2018-09-29T02:34:14.107Z,24.03
2018-09-29T02:54:06.586Z,16.37
2018-09-29T02:56:36.249Z,18.50
2018-09-29T02:59:05.931Z,20.60
2018-09-29T03:01:35.627Z,18.40
2018-09-29T03:04:05.204Z,16.67
2018-09-29T03:06:34.772Z,16.43
2018-09-29T03:09:06.301Z,16.87
2018-09-29T03:11:35.803Z,17.57
2018-09-29T03:14:05.677Z,19.40
2018-09-29T03:16:35.218Z,18.97
2018-09-29T03:19:04.957Z,18.87
2018-09-29T03:21:34.408Z,19.23
2018-09-29T03:24:04.329Z,18.07
2018-09-29T03:26:33.854Z,17.50
2018-09-29T03:29:03.557Z,19.23
2018-09-29T03:31:33.398Z,16.87
2018-09-29T03:34:03.115Z,17.93
2018-09-29T03:36:32.615Z,15.97
2018-09-29T03:39:02.397Z,20.60
2018-09-29T03:41:31.998Z,18.67
2018-09-29T03:44:01.806Z,18.90
2018-09-29T03:46:31.749Z,16.53
2018-09-29T03:49:01.503Z,13.73
2018-09-29T03:51:31.243Z,18.30
2018-09-29T03:54:01.536Z,18.80
2018-09-29T03:56:31.280Z,17.43
2018-09-29T03:59:01.156Z,19.63
2018-09-29T04:01:31.178Z,15.98
2018-09-29T04:04:01.133Z,19.92
2018-09-29T04:06:30.918Z,23.57
2018-09-29T04:09:00.954Z,32.95
2018-09-29T04:11:30.840Z,17.83
2018-09-29T04:14:01.258Z,29.07
2018-09-29T04:16:30.894Z,24.33
2018-09-29T04:19:00.809Z,23.60
2018-09-29T04:21:35.769Z,27.07
2018-09-29T04:24:05.683Z,26.05
2018-09-29T04:26:35.389Z,21.83
2018-09-29T04:29:05.225Z,21.53
2018-09-29T04:31:34.691Z,33.43
2018-09-29T04:34:04.636Z,25.35
2018-09-29T04:53:56.703Z,22.03
2018-09-29T04:56:26.602Z,28.27
2018-09-29T04:58:56.388Z,27.98
2018-09-29T05:01:26.323Z,26.82
2018-09-29T05:03:56.058Z,27.10
2018-09-29T05:06:26.092Z,22.30
2018-09-29T05:08:56.159Z,22.13
2018-09-29T05:11:25.963Z,26.20
2018-09-29T05:13:55.842Z,28.90
2018-09-29T05:16:25.935Z,22.93
2018-09-29T05:18:55.643Z,19.57
2018-09-29T05:21:25.550Z,24.47
2018-09-29T05:23:55.677Z,19.33
2018-09-29T05:26:25.590Z,20.27
2018-09-29T05:46:17.581Z,17.57
2018-09-29T05:48:47.330Z,21.00
2018-09-29T05:51:17.184Z,17.80
2018-09-29T05:53:47.088Z,22.73
2018-09-29T05:56:16.939Z,18.77
2018-09-29T05:58:46.703Z,28.83
2018-09-29T06:01:16.641Z,23.40
2018-09-29T06:21:08.102Z,22.20
2018-09-29T06:23:38.054Z,23.07
2018-09-29T06:26:07.863Z,22.87
2018-09-29T06:28:37.578Z,20.00
2018-09-29T06:31:07.601Z,21.57
2018-09-29T06:33:37.163Z,23.33
2018-09-29T06:36:06.725Z,22.63
2018-09-29T06:55:58.367Z,26.23
2018-09-29T07:15:50.141Z,26.80
2018-09-29T07:18:19.955Z,25.80
2018-09-29T07:38:11.573Z,25.47
2018-09-29T07:40:41.467Z,56.47
2018-09-29T07:43:11.092Z,36.23
2018-09-29T07:45:41.036Z,56.60
2018-09-29T07:48:10.662Z,29.10
2018-09-29T07:50:40.001Z,35.07
2018-09-29T07:53:09.481Z,32.10
2018-09-29T07:55:39.428Z,23.60
2018-09-29T07:58:09.233Z,25.93
2018-09-29T08:00:39.207Z,27.73
2018-09-29T08:03:08.930Z,20.37
2018-09-29T08:05:38.579Z,23.57
2018-09-29T08:25:31.155Z,34.67
2018-09-29T08:48:16.622Z,23.20
2018-09-29T09:08:09.858Z,19.83
2018-09-29T09:10:39.841Z,25.70
2018-09-29T09:13:09.479Z,21.57
2018-09-29T09:15:39.223Z,21.93
2018-09-29T09:18:09.383Z,23.33
2018-09-29T09:20:38.924Z,24.90
2018-09-29T09:23:08.612Z,25.00
2018-09-29T09:25:38.747Z,24.30
2018-09-29T09:28:08.679Z,22.07
2018-09-29T09:30:38.270Z,21.40
2018-09-29T09:33:08.238Z,22.67
2018-09-29T09:35:38.000Z,18.87
2018-09-29T09:38:07.757Z,16.97
2018-09-29T09:40:37.568Z,25.77
2018-09-29T10:00:34.526Z,13.23
2018-09-29T10:03:15.725Z,15.70
2018-09-29T10:05:45.292Z,18.97
2018-09-29T10:08:15.201Z,14.20
2018-09-29T10:10:44.901Z,13.27
2018-09-29T10:13:14.722Z,9.77
2018-09-29T10:15:44.445Z,12.77
2018-09-29T10:18:14.883Z,13.23
2018-09-29T10:38:06.887Z,10.90
2018-09-29T10:40:36.678Z,10.13
2018-09-29T10:43:06.408Z,9.67
2018-09-29T10:45:36.374Z,15.60
2018-09-29T10:48:06.162Z,13.50
2018-09-29T11:07:58.152Z,13.20
2018-09-29T11:10:28.193Z,12.57
2018-09-29T11:12:58.180Z,11.97
2018-09-29T11:15:27.851Z,13.97
2018-09-29T11:17:57.754Z,13.27
2018-09-29T11:20:28.204Z,8.70
2018-09-29T11:22:57.865Z,9.80
2018-09-29T11:25:27.858Z,10.30
2018-09-29T11:27:57.637Z,14.83
2018-09-29T11:30:27.159Z,10.00
2018-09-29T11:32:57.009Z,14.47
2018-09-29T11:52:49.505Z,12.57
2018-09-29T12:12:41.927Z,11.33
2018-09-29T12:15:11.416Z,9.13
2018-09-29T12:17:41.081Z,11.07
2018-09-29T12:49:07.871Z,5.57
2018-09-29T12:51:38.352Z,12.10
2018-09-29T12:54:08.370Z,12.20
2018-09-29T13:13:59.732Z,5.73
2018-09-29T13:16:29.447Z,5.90
2018-09-29T13:18:59.459Z,5.53
2018-09-29T13:21:29.076Z,9.90
2018-09-29T13:23:58.620Z,13.77
2018-09-29T13:26:28.936Z,12.37
2018-09-29T13:46:21.053Z,5.13
2018-09-29T14:06:13.611Z,59.70
2018-09-29T14:08:43.427Z,16.67
2018-09-29T14:11:13.258Z,10.80
2018-09-29T14:31:05.435Z,9.23
2018-09-29T14:33:35.043Z,5.97
2018-09-29T14:36:04.595Z,6.27
2018-09-29T14:38:34.065Z,7.73
2018-09-29T14:41:03.522Z,11.80
2018-09-29T14:43:32.858Z,7.30
2018-09-29T14:46:02.524Z,7.87
2018-09-29T14:48:32.015Z,10.83
2018-09-29T14:51:01.869Z,11.67
2018-09-29T15:10:54.065Z,8.80
2018-09-29T15:13:23.642Z,9.10
2018-09-29T15:33:15.423Z,12.77
2018-09-29T15:53:08.163Z,17.43
2018-09-29T15:55:38.197Z,12.37
2018-09-29T15:58:07.864Z,18.70
2018-09-29T16:00:37.653Z,11.83
2018-09-29T16:03:07.623Z,13.30
2018-09-29T16:05:37.109Z,13.13
2018-09-29T16:08:06.625Z,13.90
2018-09-29T16:27:58.206Z,20.77
2018-09-29T16:30:27.663Z,22.17
2018-09-29T16:50:20.271Z,15.03
2018-09-29T16:52:50.042Z,20.33
2018-09-29T17:12:41.624Z,18.27
2018-09-29T17:15:11.138Z,22.17
2018-09-29T17:17:41.029Z,22.80
2018-09-29T17:20:11.063Z,27.43
2018-09-29T17:22:40.537Z,24.10
2018-09-29T17:25:10.194Z,24.13
2018-09-29T17:27:40.460Z,25.93
2018-09-29T17:30:10.498Z,27.20
2018-09-29T17:50:02.906Z,20.80
2018-09-29T17:52:32.268Z,55.83
2018-09-29T17:55:02.019Z,23.53
2018-09-29T17:57:31.993Z,26.17
2018-09-29T18:00:01.896Z,22.93
2018-09-29T18:02:31.425Z,27.33
2018-09-29T18:05:01.244Z,26.37
2018-09-29T18:07:31.052Z,24.47
2018-09-29T18:10:00.534Z,23.70
2018-09-29T18:29:52.407Z,25.60
2018-09-29T18:32:21.989Z,23.07
2018-09-29T18:52:14.325Z,24.70
2018-09-29T18:54:44.033Z,23.93
2018-09-29T18:57:14.055Z,22.53
2018-09-29T18:59:44.421Z,25.00
2018-09-29T19:02:14.141Z,24.03
2018-09-29T19:04:43.906Z,19.63
2018-09-29T19:07:13.860Z,23.07
2018-09-29T19:27:05.680Z,30.77
2018-09-29T19:29:35.416Z,25.23
2018-09-29T19:32:05.265Z,23.50
2018-09-29T19:34:35.381Z,24.93
2018-09-29T19:37:05.053Z,26.87
2018-09-29T19:39:34.641Z,29.30
2018-09-29T19:42:04.535Z,27.50
2018-09-29T19:44:34.100Z,25.37
2018-09-29T19:47:03.871Z,28.47
2018-09-29T20:06:56.478Z,30.37
2018-09-29T20:26:48.923Z,32.53
2018-09-29T20:46:41.294Z,34.57
2018-09-29T20:49:11.062Z,36.23
2018-09-29T20:51:40.883Z,35.73
2018-09-29T20:54:10.498Z,37.50
2018-09-29T20:56:40.333Z,37.47
2018-09-29T20:59:10.057Z,32.20
2018-09-29T21:01:39.864Z,34.63
2018-09-29T21:04:09.563Z,57.73
2018-09-29T21:06:39.365Z,33.73
2018-09-29T21:09:09.662Z,36.87
2018-09-29T21:11:39.511Z,32.73
2018-09-29T21:14:09.323Z,33.70
2018-09-29T21:16:39.418Z,36.00
2018-09-29T21:19:09.449Z,34.47
2018-09-29T21:21:39.174Z,34.33
2018-09-29T21:24:09.130Z,40.63
2018-09-29T21:26:39.113Z,33.53
2018-09-29T21:29:08.964Z,35.10
2018-09-29T21:31:39.075Z,33.30
2018-09-29T21:34:08.824Z,35.77
2018-09-29T21:36:38.553Z,32.80
2018-09-29T21:39:09.219Z,40.67
2018-09-29T21:41:39.218Z,33.87
2018-09-29T21:44:08.942Z,35.30
2018-09-29T21:46:38.971Z,38.40
2018-09-29T21:49:08.718Z,37.70
2018-09-29T21:51:38.555Z,43.37
2018-09-29T21:54:08.627Z,41.13
2018-09-29T21:56:38.378Z,34.13
2018-09-29T21:59:08.193Z,34.97
2018-09-29T22:01:38.266Z,36.77
2018-09-29T22:04:08.104Z,36.47
2018-09-29T22:06:38.119Z,33.33
2018-09-29T22:09:09.023Z,40.03
2018-09-29T22:11:38.909Z,34.50
2018-09-29T22:14:08.729Z,34.03
2018-09-29T22:16:38.725Z,31.03
2018-09-29T22:19:08.545Z,37.60
2018-09-29T22:21:38.316Z,38.33
2018-09-29T22:24:08.410Z,37.60
2018-09-29T22:26:38.151Z,36.73
2018-09-29T22:29:07.863Z,39.53
2018-09-29T22:31:37.794Z,36.77
2018-09-29T22:34:07.593Z,34.93
2018-09-29T22:36:37.412Z,39.80
2018-09-29T22:39:09.667Z,40.10
2018-09-29T22:41:39.586Z,39.17
2018-09-29T22:44:09.442Z,44.80
2018-09-29T22:46:39.332Z,37.50
2018-09-29T22:49:09.090Z,38.37
2018-09-29T22:51:39.041Z,33.70
2018-09-29T22:54:09.301Z,37.20
2018-09-29T22:56:39.244Z,35.20
2018-09-29T22:59:08.976Z,40.93
2018-09-29T23:01:38.894Z,39.73
2018-09-29T23:04:08.784Z,40.03
2018-09-29T23:06:38.514Z,37.97
2018-09-29T23:09:10.732Z,35.07
2018-09-29T23:11:40.569Z,46.23
2018-09-29T23:14:10.391Z,40.50
2018-09-29T23:16:40.182Z,41.63
2018-09-29T23:19:10.101Z,40.63
2018-09-29T23:21:39.991Z,38.80
2018-09-29T23:24:10.281Z,38.53
2018-09-29T23:26:39.903Z,38.03
2018-09-29T23:29:09.685Z,36.40
2018-09-29T23:31:39.642Z,41.93
2018-09-29T23:34:09.495Z,44.20
2018-09-29T23:36:39.158Z,39.40
2018-09-29T23:39:10.381Z,40.60
2018-09-29T23:41:40.134Z,37.27
2018-09-29T23:44:09.964Z,40.77
2018-09-29T23:46:39.746Z,44.20
2018-09-29T23:49:09.524Z,41.20
2018-09-29T23:51:39.454Z,41.10
2018-09-29T23:54:09.647Z,46.47
2018-09-29T23:56:39.569Z,39.73
2018-09-29T23:59:09.508Z,41.60
